createdAt,value
2023-03-12T00:00:28.375Z,4.75
2023-03-12T00:02:55.927Z,6.30
2023-03-12T00:05:23.081Z,4.22
2023-03-12T00:07:50.399Z,2.28
2023-03-12T00:10:17.700Z,5.00
2023-03-12T00:12:44.841Z,4.47
2023-03-12T00:15:11.840Z,4.20
2023-03-12T00:17:38.909Z,7.00
2023-03-12T00:20:07.252Z,6.13
2023-03-12T00:22:34.673Z,4.57
2023-03-12T00:25:01.945Z,4.47
2023-03-12T00:27:29.061Z,6.72
2023-03-12T00:29:56.228Z,5.90
2023-03-12T00:32:25.879Z,5.47
2023-03-12T00:34:53.689Z,4.10
2023-03-12T00:37:20.750Z,4.10
2023-03-12T00:39:47.797Z,4.78
2023-03-12T00:42:14.934Z,6.20
2023-03-12T00:44:44.350Z,5.75
2023-03-12T00:47:11.712Z,6.70
2023-03-12T00:49:38.999Z,10.27
2023-03-12T00:52:08.503Z,4.97
2023-03-12T00:54:35.590Z,7.57
2023-03-12T00:57:02.651Z,8.00
2023-03-12T00:59:30.807Z,7.07
2023-03-12T01:02:00.210Z,5.80
2023-03-12T01:04:27.568Z,7.85
2023-03-12T01:06:55.624Z,5.85
2023-03-12T01:09:22.701Z,8.18
2023-03-12T01:11:49.660Z,5.63
2023-03-12T01:14:19.255Z,12.95
2023-03-12T01:16:52.699Z,7.50
2023-03-12T01:19:22.256Z,10.35
2023-03-12T01:21:50.443Z,10.75
2023-03-12T01:24:17.882Z,10.27
2023-03-12T01:26:44.855Z,7.65
2023-03-12T01:29:11.795Z,9.65
2023-03-12T01:31:38.948Z,11.15
2023-03-12T01:34:06.065Z,9.20
2023-03-12T01:36:33.245Z,15.02
2023-03-12T01:39:00.341Z,8.38
2023-03-12T01:41:28.345Z,11.07
2023-03-12T01:43:55.524Z,11.68
2023-03-12T01:46:43.388Z,13.70
2023-03-12T01:49:22.828Z,6.47
2023-03-12T01:52:09.153Z,6.90
2023-03-12T01:54:48.498Z,10.43
2023-03-12T01:57:17.532Z,7.32
2023-03-12T01:59:52.432Z,9.32
2023-03-12T02:02:23.657Z,9.48
2023-03-12T02:04:50.601Z,11.32
2023-03-12T02:07:20.311Z,10.05
2023-03-12T02:09:48.917Z,13.32
2023-03-12T02:12:16.815Z,6.35
2023-03-12T02:14:43.857Z,5.50
2023-03-12T02:17:10.985Z,12.50
2023-03-12T02:19:46.842Z,8.55
2023-03-12T02:22:13.870Z,8.05
2023-03-12T02:25:04.063Z,15.52
2023-03-12T02:27:34.468Z,6.75
2023-03-12T02:30:04.318Z,7.05
2023-03-12T02:32:35.478Z,7.85
2023-03-12T02:35:02.839Z,21.58
2023-03-12T02:37:29.848Z,11.90
2023-03-12T02:40:01.045Z,8.77
2023-03-12T02:42:28.251Z,8.10
2023-03-12T02:44:55.435Z,11.45
2023-03-12T02:47:22.634Z,12.30
2023-03-12T02:49:49.584Z,9.13
2023-03-12T02:52:19.118Z,9.20
2023-03-12T02:54:46.258Z,8.10
2023-03-12T02:57:13.197Z,14.65
2023-03-12T02:59:43.120Z,7.38
2023-03-12T03:02:12.630Z,13.10
2023-03-12T03:04:39.713Z,6.53
2023-03-12T03:07:06.653Z,10.13
2023-03-12T03:09:33.960Z,6.63
2023-03-12T03:12:03.515Z,4.32
2023-03-12T03:14:30.423Z,10.20
2023-03-12T03:16:59.958Z,7.80
2023-03-12T03:19:26.884Z,15.52
2023-03-12T03:21:56.401Z,19.80
2023-03-12T03:24:23.350Z,12.35
2023-03-12T03:26:50.486Z,20.00
2023-03-12T03:29:17.681Z,15.68
2023-03-12T03:31:44.635Z,11.05
2023-03-12T03:34:12.645Z,12.02
2023-03-12T03:36:42.097Z,17.95
2023-03-12T03:39:09.082Z,8.35
2023-03-12T03:41:36.052Z,12.55
2023-03-12T03:44:03.261Z,9.60
2023-03-12T03:46:30.355Z,14.35
2023-03-12T03:48:59.082Z,13.82
2023-03-12T03:51:26.040Z,13.30
2023-03-12T03:53:53.039Z,12.13
2023-03-12T03:56:20.091Z,10.65
2023-03-12T03:58:47.089Z,14.82
2023-03-12T04:01:14.832Z,8.52
2023-03-12T04:03:41.893Z,10.05
2023-03-12T04:06:08.878Z,13.68
2023-03-12T04:08:41.235Z,11.80
2023-03-12T04:11:15.260Z,12.57
2023-03-12T04:13:42.579Z,17.45
2023-03-12T04:16:09.666Z,8.05
2023-03-12T04:18:36.883Z,12.55
2023-03-12T04:21:05.128Z,19.63
2023-03-12T04:23:32.326Z,9.07
2023-03-12T04:25:59.329Z,18.88
2023-03-12T04:28:26.487Z,11.10
2023-03-12T04:31:01.468Z,8.88
2023-03-12T04:33:33.271Z,10.07
2023-03-12T04:36:00.257Z,21.77
2023-03-12T04:38:27.478Z,15.85
2023-03-12T04:41:04.925Z,11.48
2023-03-12T04:43:32.198Z,11.43
2023-03-12T04:45:59.206Z,20.13
2023-03-12T04:48:26.305Z,14.48
2023-03-12T04:50:55.800Z,19.65
2023-03-12T04:53:22.782Z,25.38
2023-03-12T04:55:49.910Z,14.20
2023-03-12T04:58:17.286Z,21.52
2023-03-12T05:00:46.759Z,24.77
2023-03-12T05:03:13.962Z,18.23
2023-03-12T05:05:45.785Z,23.45
2023-03-12T05:08:12.766Z,29.13
2023-03-12T05:10:39.950Z,28.13
2023-03-12T05:13:17.632Z,18.35
2023-03-12T05:15:44.658Z,21.42
2023-03-12T05:18:11.674Z,18.65
2023-03-12T05:20:38.671Z,16.02
2023-03-12T05:23:05.752Z,29.42
2023-03-12T05:25:32.705Z,30.13
2023-03-12T05:27:59.765Z,15.13
2023-03-12T05:30:26.926Z,25.95
2023-03-12T05:32:54.076Z,17.98
2023-03-12T05:35:21.268Z,24.55
2023-03-12T05:37:48.246Z,21.58
2023-03-12T05:40:17.743Z,21.13
2023-03-12T05:42:44.725Z,20.40
2023-03-12T05:45:11.845Z,16.58
2023-03-12T05:47:38.796Z,21.20
2023-03-12T05:50:09.647Z,23.38
2023-03-12T05:52:36.629Z,27.27
2023-03-12T05:55:03.851Z,21.35
2023-03-12T05:57:30.766Z,12.27
2023-03-12T06:00:00.223Z,22.90
2023-03-12T06:02:27.283Z,18.40
2023-03-12T06:04:58.601Z,18.63
2023-03-12T06:07:25.613Z,14.52
2023-03-12T06:09:52.645Z,20.38
2023-03-12T06:12:19.531Z,23.55
2023-03-12T06:14:46.471Z,12.20
2023-03-12T06:17:13.477Z,25.55
2023-03-12T06:19:40.835Z,19.08
2023-03-12T06:22:10.283Z,26.58
2023-03-12T06:24:38.422Z,18.30
2023-03-12T06:27:05.577Z,24.38
2023-03-12T06:29:32.610Z,17.35
2023-03-12T06:32:02.720Z,19.63
2023-03-12T06:34:32.033Z,11.80
2023-03-12T06:37:01.472Z,16.02
2023-03-12T06:39:30.282Z,23.35
2023-03-12T06:41:57.220Z,14.90
2023-03-12T06:44:24.150Z,18.05
2023-03-12T06:46:52.289Z,17.35
2023-03-12T06:49:26.847Z,15.55
2023-03-12T06:51:54.559Z,21.30
2023-03-12T06:54:21.557Z,13.32
2023-03-12T06:56:48.665Z,21.05
2023-03-12T06:59:15.680Z,24.52
2023-03-12T07:01:42.749Z,23.17
2023-03-12T07:04:12.670Z,28.35
2023-03-12T07:06:39.824Z,26.38
2023-03-12T07:09:07.388Z,17.63
2023-03-12T07:11:34.405Z,31.67
2023-03-12T07:14:01.787Z,19.13
2023-03-12T07:16:29.005Z,23.35
2023-03-12T07:18:56.302Z,17.73
2023-03-12T07:21:23.958Z,14.90
2023-03-12T07:23:51.138Z,14.90
2023-03-12T07:26:18.075Z,21.73
2023-03-12T07:28:45.222Z,22.60
2023-03-12T07:31:12.340Z,13.73
2023-03-12T07:33:39.449Z,15.93
2023-03-12T07:36:07.264Z,17.42
2023-03-12T07:38:36.779Z,37.47
2023-03-12T07:41:04.022Z,21.15
2023-03-12T07:43:31.096Z,19.45
2023-03-12T07:45:58.220Z,27.98
2023-03-12T07:48:25.380Z,27.05
2023-03-12T07:50:52.427Z,23.52
2023-03-12T07:53:22.030Z,25.25
2023-03-12T07:55:49.230Z,29.30
2023-03-12T07:58:17.007Z,17.77
2023-03-12T08:00:44.509Z,22.35
2023-03-12T08:03:12.053Z,34.88
2023-03-12T08:05:41.392Z,22.42
2023-03-12T08:08:08.870Z,23.15
2023-03-12T08:10:36.747Z,29.05
2023-03-12T08:13:03.777Z,16.17
2023-03-12T08:15:33.777Z,22.25
2023-03-12T08:18:01.580Z,18.02
2023-03-12T08:20:28.686Z,21.40
2023-03-12T08:22:55.795Z,18.05
2023-03-12T08:25:24.951Z,15.10
2023-03-12T08:27:52.181Z,33.13
2023-03-12T08:30:21.411Z,18.42
2023-03-12T08:32:48.509Z,17.73
2023-03-12T08:35:15.598Z,16.58
2023-03-12T08:37:42.601Z,24.42
2023-03-12T08:40:13.615Z,23.05
2023-03-12T08:42:44.009Z,15.27
2023-03-12T08:45:11.708Z,21.13
2023-03-12T08:47:41.866Z,19.00
2023-03-12T08:50:10.390Z,18.42
2023-03-12T08:52:37.560Z,17.10
2023-03-12T08:55:06.109Z,18.15
2023-03-12T08:57:33.084Z,22.02
2023-03-12T09:00:00.098Z,13.27
2023-03-12T09:02:27.409Z,22.73
2023-03-12T09:04:54.568Z,11.85
2023-03-12T09:07:22.858Z,17.95
2023-03-12T09:09:49.981Z,14.88
2023-03-12T09:12:17.153Z,14.98
2023-03-12T09:15:04.179Z,17.58
2023-03-12T09:17:32.008Z,14.02
2023-03-12T09:19:59.322Z,18.70
2023-03-12T09:22:26.506Z,15.90
2023-03-12T09:24:53.577Z,7.53
2023-03-12T09:27:20.586Z,22.05
2023-03-12T09:29:59.641Z,23.48
2023-03-12T09:32:38.641Z,15.98
2023-03-12T09:35:07.057Z,24.40
2023-03-12T09:37:34.494Z,12.32
2023-03-12T09:40:01.892Z,26.52
2023-03-12T09:42:47.415Z,19.88
2023-03-12T09:45:22.980Z,13.30
2023-03-12T09:47:53.847Z,22.05
2023-03-12T09:50:28.698Z,14.98
2023-03-12T09:53:06.560Z,21.65
2023-03-12T09:55:37.498Z,21.98
2023-03-12T09:58:04.590Z,13.43
2023-03-12T10:00:34.536Z,22.70
2023-03-12T10:03:23.721Z,16.55
2023-03-12T10:06:13.185Z,20.45
2023-03-12T10:08:56.594Z,18.77
2023-03-12T10:11:50.188Z,21.00
2023-03-12T10:14:56.678Z,14.37
2023-03-12T10:17:48.025Z,14.20
2023-03-12T10:20:30.211Z,15.60
2023-03-12T10:23:10.947Z,20.48
2023-03-12T10:26:18.845Z,20.30
2023-03-12T10:28:51.390Z,19.33
2023-03-12T10:31:35.462Z,21.15
2023-03-12T10:34:03.574Z,15.20
2023-03-12T10:36:38.570Z,24.05
2023-03-12T10:39:10.284Z,17.77
2023-03-12T10:41:48.911Z,12.13
2023-03-12T10:44:23.616Z,16.17
2023-03-12T10:47:01.318Z,7.20
2023-03-12T10:49:36.262Z,19.85
2023-03-12T10:52:13.193Z,13.55
2023-03-12T10:54:40.997Z,19.65
2023-03-12T10:57:08.421Z,18.52
2023-03-12T10:59:46.310Z,16.52
2023-03-12T11:02:36.484Z,13.35
2023-03-12T11:05:03.990Z,10.32
2023-03-12T11:07:41.194Z,11.90
2023-03-12T11:10:13.130Z,22.90
2023-03-12T11:13:00.275Z,15.57
2023-03-12T11:15:51.397Z,16.13
2023-03-12T11:18:34.440Z,14.40
2023-03-12T11:21:10.521Z,10.18
2023-03-12T11:23:46.373Z,16.58
2023-03-12T11:26:21.243Z,16.65
2023-03-12T11:28:56.126Z,10.70
2023-03-12T11:31:39.562Z,13.57
2023-03-12T11:34:53.009Z,15.98
2023-03-12T11:37:59.884Z,16.20
2023-03-12T11:40:29.637Z,14.55
2023-03-12T11:43:11.541Z,18.08
2023-03-12T11:46:21.893Z,18.08
2023-03-12T11:49:20.688Z,15.63
2023-03-12T11:51:54.235Z,8.32
2023-03-12T11:54:42.276Z,25.25
2023-03-12T11:57:27.172Z,15.60
2023-03-12T12:00:12.786Z,13.75
2023-03-12T12:03:06.147Z,8.13
2023-03-12T12:05:48.058Z,14.63
2023-03-12T12:08:36.314Z,18.45
2023-03-12T12:11:24.462Z,23.77
2023-03-12T12:14:06.060Z,20.88
2023-03-12T12:17:14.403Z,10.90
2023-03-12T12:20:10.574Z,16.10
2023-03-12T12:23:05.847Z,14.35
2023-03-12T12:25:44.822Z,9.73
2023-03-12T12:28:45.277Z,19.17
2023-03-12T12:31:33.862Z,23.73
2023-03-12T12:34:07.764Z,13.10
2023-03-12T12:36:35.422Z,16.30
2023-03-12T12:39:19.424Z,20.75
2023-03-12T12:41:53.504Z,17.90
2023-03-12T12:44:32.286Z,8.38
2023-03-12T12:47:01.469Z,18.23
2023-03-12T12:49:36.101Z,19.15
2023-03-12T12:52:05.473Z,14.98
2023-03-12T12:54:54.062Z,9.32
2023-03-12T12:57:36.674Z,18.70
2023-03-12T13:00:33.436Z,20.30
2023-03-12T13:03:00.730Z,11.18
2023-03-12T13:05:37.306Z,14.13
2023-03-12T13:08:05.283Z,13.13
2023-03-12T13:10:35.362Z,14.32
2023-03-12T13:13:14.377Z,12.85
2023-03-12T13:15:43.786Z,11.65
2023-03-12T13:18:24.011Z,19.00
2023-03-12T13:20:53.979Z,10.48
2023-03-12T13:23:31.414Z,13.90
2023-03-12T13:26:27.978Z,15.73
2023-03-12T13:29:11.869Z,15.40
2023-03-12T13:32:00.656Z,15.73
2023-03-12T13:34:28.272Z,16.70
2023-03-12T13:37:00.502Z,10.00
2023-03-12T13:39:34.965Z,14.52
2023-03-12T13:42:47.692Z,17.58
2023-03-12T13:45:31.845Z,21.45
2023-03-12T13:48:06.368Z,24.70
2023-03-12T13:50:39.703Z,14.93
2023-03-12T13:53:10.155Z,8.25
2023-03-12T13:55:37.701Z,14.02
2023-03-12T13:58:13.752Z,10.15
2023-03-12T14:00:46.300Z,9.30
2023-03-12T14:03:49.820Z,13.27
2023-03-12T14:06:24.404Z,11.10
2023-03-12T14:09:26.263Z,8.70
2023-03-12T14:12:02.459Z,12.43
2023-03-12T14:14:53.641Z,7.13
2023-03-12T14:17:29.651Z,11.98
2023-03-12T14:20:02.162Z,8.77
2023-03-12T14:22:31.010Z,10.30
2023-03-12T14:25:04.313Z,2.10
2023-03-12T14:27:32.902Z,8.65
2023-03-12T14:30:16.790Z,6.68
2023-03-12T14:32:44.055Z,3.88
2023-03-12T14:35:26.032Z,5.57
2023-03-12T14:38:28.274Z,11.68
2023-03-12T14:41:07.141Z,5.18
2023-03-12T14:43:35.239Z,15.25
2023-03-12T14:46:05.280Z,6.15
2023-03-12T14:48:38.530Z,9.75
2023-03-12T14:51:24.044Z,8.38
2023-03-12T14:53:54.180Z,14.80
2023-03-12T14:56:32.998Z,9.57
2023-03-12T14:59:07.388Z,6.72
2023-03-12T15:01:42.403Z,6.53
2023-03-12T15:04:19.869Z,7.05
2023-03-12T15:07:16.721Z,16.48
2023-03-12T15:09:57.025Z,19.27
2023-03-12T15:12:45.548Z,12.70
2023-03-12T15:15:44.224Z,11.32
2023-03-12T15:18:18.737Z,12.90
2023-03-12T15:20:49.116Z,12.48
2023-03-12T15:27:36.445Z,12.35
2023-03-12T15:30:40.696Z,4.95
2023-03-12T15:33:15.691Z,7.28
2023-03-12T15:35:57.478Z,5.10
2023-03-12T15:38:27.176Z,11.45
2023-03-12T15:41:00.459Z,7.07
2023-03-12T15:43:33.057Z,6.18
2023-03-12T15:46:12.543Z,3.10
2023-03-12T15:48:42.600Z,2.25
2023-03-12T15:51:28.293Z,5.70
2023-03-12T15:54:25.351Z,7.55
2023-03-12T15:56:52.902Z,6.07
2023-03-12T15:59:29.725Z,10.73
2023-03-12T16:04:37.984Z,5.45
2023-03-12T16:07:12.076Z,4.10
2023-03-12T16:09:45.189Z,5.97
2023-03-12T16:12:17.783Z,0.90
2023-03-12T16:14:55.755Z,4.70
2023-03-12T16:20:17.745Z,3.05
2023-03-12T16:22:52.523Z,1.38
2023-03-12T16:25:19.706Z,4.10
2023-03-12T16:27:58.434Z,2.65
2023-03-12T16:30:38.168Z,3.80
2023-03-12T16:33:08.951Z,5.70
2023-03-12T16:35:46.151Z,5.93
2023-03-12T16:38:35.662Z,4.90
2023-03-12T16:41:05.806Z,5.43
2023-03-12T16:43:51.577Z,4.63
2023-03-12T16:46:20.432Z,3.50
2023-03-12T16:48:51.019Z,4.13
2023-03-12T16:51:22.266Z,3.92
2023-03-12T16:54:30.277Z,5.05
2023-03-12T16:56:57.745Z,2.85
2023-03-12T16:59:38.140Z,12.32
2023-03-12T17:02:15.892Z,3.45
2023-03-12T17:04:46.192Z,14.07
2023-03-12T17:07:25.962Z,6.78
2023-03-12T17:10:26.277Z,5.90
2023-03-12T17:13:03.265Z,8.43
2023-03-12T17:15:37.198Z,9.35
2023-03-12T17:18:20.861Z,5.50
2023-03-12T17:20:49.378Z,3.78
2023-03-12T17:23:23.235Z,5.75
2023-03-12T17:28:30.469Z,7.25
2023-03-12T17:30:57.553Z,2.05
2023-03-12T17:33:30.754Z,5.28
2023-03-12T17:36:02.705Z,5.68
2023-03-12T17:39:07.622Z,7.60
2023-03-12T17:44:41.456Z,9.25
2023-03-12T17:47:30.833Z,7.43
2023-03-12T17:49:58.380Z,4.57
2023-03-12T17:52:25.635Z,11.40
2023-03-12T17:54:55.982Z,9.20
2023-03-12T17:57:25.298Z,11.05
2023-03-12T17:59:52.604Z,5.25
2023-03-12T18:02:27.221Z,7.45
2023-03-12T18:04:54.545Z,4.68
2023-03-12T18:07:21.878Z,11.73
2023-03-12T18:10:15.347Z,14.65
2023-03-12T18:13:05.733Z,9.10
2023-03-12T18:15:39.693Z,6.05
2023-03-12T18:18:18.420Z,6.72
2023-03-12T18:20:45.883Z,13.93
2023-03-12T18:23:13.144Z,14.63
2023-03-12T18:25:54.697Z,12.85
2023-03-12T18:28:54.421Z,16.05
2023-03-12T18:32:02.349Z,11.40
2023-03-12T18:34:23.848Z,17.52
2023-03-12T18:36:56.351Z,10.30
2023-03-12T18:39:41.800Z,14.52
2023-03-12T18:43:14.098Z,9.15
2023-03-12T18:45:44.812Z,16.08
2023-03-12T18:48:11.954Z,9.45
2023-03-12T18:50:42.188Z,20.13
2023-03-12T18:53:10.411Z,8.43
2023-03-12T18:55:45.294Z,17.73
2023-03-12T18:58:13.567Z,15.38
2023-03-12T19:00:43.598Z,19.42
2023-03-12T19:03:13.268Z,18.15
2023-03-12T19:05:42.862Z,21.38
2023-03-12T19:08:16.562Z,15.38
2023-03-12T19:10:44.028Z,9.57
2023-03-12T19:13:11.225Z,23.75
2023-03-12T19:15:40.870Z,7.47
2023-03-12T19:18:08.480Z,22.50
2023-03-12T19:20:37.634Z,19.83
2023-03-12T19:23:05.363Z,15.55
2023-03-12T19:25:35.226Z,12.80
2023-03-12T19:28:02.367Z,13.73
2023-03-12T19:30:30.878Z,13.98
2023-03-12T19:33:00.265Z,15.05
2023-03-12T19:35:27.640Z,14.35
2023-03-12T19:37:54.850Z,11.43
2023-03-12T19:40:21.886Z,12.23
2023-03-12T19:42:48.831Z,7.47
2023-03-12T19:45:16.093Z,10.85
2023-03-12T19:47:43.559Z,8.10
2023-03-12T19:50:14.213Z,9.77
2023-03-12T19:52:45.224Z,8.50
2023-03-12T19:55:15.593Z,12.35
2023-03-12T19:57:42.815Z,8.90
2023-03-12T20:00:15.432Z,10.00
2023-03-12T20:02:46.245Z,12.52
2023-03-12T20:05:13.563Z,6.28
2023-03-12T20:07:44.752Z,10.48
2023-03-12T20:10:13.385Z,4.45
2023-03-12T20:12:42.958Z,6.65
2023-03-12T20:15:14.127Z,8.20
2023-03-12T20:17:41.286Z,8.02
2023-03-12T20:20:09.320Z,6.90
2023-03-12T20:22:41.706Z,7.47
2023-03-12T20:25:10.585Z,5.60
2023-03-12T20:31:17.588Z,4.00
2023-03-12T20:33:58.824Z,9.88
2023-03-12T20:37:11.599Z,3.83
2023-03-12T20:39:39.379Z,2.75
2023-03-12T20:42:06.627Z,3.70
2023-03-12T20:44:45.912Z,1.02
2023-03-12T20:47:13.178Z,3.35
2023-03-12T20:50:04.654Z,1.48
2023-03-12T20:52:32.177Z,0.68
2023-03-12T20:54:59.451Z,3.20
2023-03-12T20:57:32.535Z,1.02
2023-03-12T21:00:03.128Z,0.43
2023-03-12T21:02:32.928Z,1.17
2023-03-12T21:04:59.998Z,0.32
2023-03-12T21:07:27.071Z,0.20
2023-03-12T21:10:09.213Z,1.15
2023-03-12T21:13:57.236Z,0.90
2023-03-12T21:16:30.384Z,1.23
2023-03-12T21:19:03.206Z,0.47
2023-03-12T21:21:36.685Z,0.70
2023-03-12T21:24:07.124Z,0.65
2023-03-12T21:26:34.267Z,0.50
2023-03-12T21:29:01.378Z,2.40
2023-03-12T21:31:29.748Z,0.15
2023-03-12T21:34:03.277Z,0.75
2023-03-12T21:36:30.638Z,0.30
2023-03-12T21:38:57.966Z,0.30
2023-03-12T21:41:27.741Z,2.60
2023-03-12T21:44:05.118Z,0.68
2023-03-12T21:46:41.427Z,0.82
2023-03-12T21:49:11.712Z,0.20
2023-03-12T21:51:47.542Z,0.30
2023-03-12T21:54:17.604Z,5.90
2023-03-12T21:56:47.118Z,0.32
2023-03-12T21:59:14.256Z,2.05
2023-03-12T22:01:46.863Z,3.78
2023-03-12T22:04:14.174Z,2.35
2023-03-12T22:06:44.364Z,0.90
2023-03-12T22:09:11.524Z,1.67
2023-03-12T22:11:38.684Z,3.75
2023-03-12T22:14:05.891Z,3.28
2023-03-12T22:16:35.551Z,1.27
2023-03-12T22:19:02.696Z,1.60
2023-03-12T22:21:32.931Z,1.05
2023-03-12T22:24:00.822Z,0.75
2023-03-12T22:26:31.081Z,3.28
2023-03-12T22:28:58.446Z,1.60
2023-03-12T22:31:26.563Z,0.63
2023-03-12T22:33:53.659Z,3.38
2023-03-12T22:36:21.026Z,1.45
2023-03-12T22:38:50.847Z,1.98
2023-03-12T22:41:20.909Z,1.23
2023-03-12T22:43:50.968Z,0.88
2023-03-12T22:46:19.127Z,0.50
2023-03-12T22:48:47.044Z,2.05
2023-03-12T22:51:17.508Z,0.85
2023-03-12T22:53:45.650Z,0.70
2023-03-12T22:56:13.183Z,0.50
2023-03-12T22:58:44.722Z,0.75
2023-03-12T23:01:15.724Z,0.57
2023-03-12T23:03:43.488Z,0.55
2023-03-12T23:06:14.969Z,0.30
2023-03-12T23:08:42.061Z,0.75
2023-03-12T23:11:09.728Z,3.00
2023-03-12T23:13:37.924Z,0.30
2023-03-12T23:16:16.831Z,0.73
2023-03-12T23:18:44.675Z,0.82
2023-03-12T23:21:13.522Z,0.40
2023-03-12T23:23:42.280Z,0.60
2023-03-12T23:26:10.723Z,0.85
2023-03-12T23:28:37.597Z,0.20
2023-03-12T23:31:07.676Z,2.63
2023-03-12T23:33:34.877Z,1.83
2023-03-12T23:36:07.252Z,0.85
2023-03-12T23:38:37.702Z,1.55
2023-03-12T23:41:10.799Z,1.50
2023-03-12T23:43:58.025Z,2.78
2023-03-12T23:46:27.413Z,4.80
2023-03-12T23:48:54.534Z,9.88
2023-03-12T23:51:23.213Z,6.30
2023-03-12T23:53:51.500Z,4.85
2023-03-12T23:56:20.994Z,3.33
2023-03-12T23:58:48.143Z,3.08
